createdAt,value
2023-03-11T00:01:54.703Z,70.85
2023-03-11T00:04:24.423Z,70.81
2023-03-11T00:06:54.280Z,70.77
2023-03-11T00:09:22.776Z,70.79
2023-03-11T00:11:53.385Z,70.96
2023-03-11T00:14:22.316Z,70.85
2023-03-11T00:16:53.720Z,70.54
2023-03-11T00:19:23.146Z,70.49
2023-03-11T00:21:52.979Z,70.73
2023-03-11T00:24:23.009Z,70.73
2023-03-11T00:26:52.672Z,70.95
2023-03-11T00:29:22.398Z,70.76
2023-03-11T00:31:51.970Z,70.98
2023-03-11T00:34:21.936Z,70.90
2023-03-11T00:36:51.906Z,70.90
2023-03-11T00:39:22.074Z,71.19
2023-03-11T00:41:52.224Z,71.22
2023-03-11T00:44:20.840Z,70.96
2023-03-11T00:46:51.029Z,71.13
2023-03-11T00:49:21.013Z,70.95
2023-03-11T00:51:50.345Z,71.25
2023-03-11T00:54:20.644Z,71.29
2023-03-11T00:56:50.565Z,71.05
2023-03-11T00:59:20.969Z,71.44
2023-03-11T01:01:51.011Z,71.66
2023-03-11T01:04:20.684Z,71.82
2023-03-11T01:06:49.920Z,71.73
2023-03-11T01:09:20.267Z,72.01
2023-03-11T01:11:49.794Z,72.08
2023-03-11T01:14:19.884Z,72.29
2023-03-11T01:16:48.646Z,71.95
2023-03-11T01:19:19.656Z,72.00
2023-03-11T01:21:50.587Z,72.05
2023-03-11T01:24:20.876Z,71.87
2023-03-11T01:26:50.468Z,71.89
2023-03-11T01:29:20.498Z,72.18
2023-03-11T01:31:50.850Z,72.37
2023-03-11T01:34:20.959Z,72.25
2023-03-11T01:36:50.915Z,72.33
2023-03-11T01:39:21.504Z,72.51
2023-03-11T01:41:53.446Z,72.41
2023-03-11T01:44:23.398Z,72.46
2023-03-11T01:46:54.220Z,72.44
2023-03-11T01:49:30.118Z,72.62
2023-03-11T01:52:09.715Z,72.86
2023-03-11T01:54:47.279Z,72.62
2023-03-11T01:57:17.411Z,72.83
2023-03-11T01:59:52.323Z,72.81
2023-03-11T02:02:40.890Z,72.59
2023-03-11T02:05:12.152Z,72.75
2023-03-11T02:07:42.218Z,72.80
2023-03-11T02:10:13.962Z,72.89
2023-03-11T02:12:44.552Z,72.78
2023-03-11T02:15:26.391Z,73.08
2023-03-11T02:17:56.937Z,73.50
2023-03-11T02:20:51.486Z,73.71
2023-03-11T02:23:27.723Z,73.65
2023-03-11T02:26:14.144Z,73.54
2023-03-11T02:28:45.580Z,73.41
2023-03-11T02:31:16.167Z,73.79
2023-03-11T02:33:49.632Z,73.78
2023-03-11T02:36:34.921Z,73.52
2023-03-11T02:39:06.407Z,73.40
2023-03-11T02:41:40.734Z,73.73
2023-03-11T02:44:13.506Z,73.66
2023-03-11T02:46:45.761Z,73.56
2023-03-11T02:49:16.832Z,73.32
2023-03-11T02:51:46.122Z,73.28
2023-03-11T02:54:16.067Z,73.55
2023-03-11T02:56:45.969Z,73.34
2023-03-11T02:59:15.791Z,73.35
2023-03-11T03:01:45.570Z,74.01
2023-03-11T03:04:15.584Z,73.92
2023-03-11T03:06:45.736Z,73.92
2023-03-11T03:09:18.217Z,73.74
2023-03-11T03:11:48.083Z,73.75
2023-03-11T03:14:18.052Z,73.80
2023-03-11T03:16:46.818Z,73.84
2023-03-11T03:19:16.308Z,74.06
2023-03-11T03:21:45.044Z,74.20
2023-03-11T03:24:15.099Z,74.23
2023-03-11T03:26:44.860Z,74.19
2023-03-11T03:29:15.188Z,74.03
2023-03-11T03:31:45.400Z,74.34
2023-03-11T03:34:15.917Z,74.47
2023-03-11T03:36:45.904Z,74.23
2023-03-11T03:39:14.734Z,74.33
2023-03-11T03:41:45.111Z,74.36
2023-03-11T03:44:15.492Z,75.20
2023-03-11T03:46:45.615Z,75.14
2023-03-11T03:49:14.489Z,75.03
2023-03-11T03:51:45.449Z,75.17
2023-03-11T03:54:22.730Z,75.60
2023-03-11T03:56:53.348Z,75.86
2023-03-11T03:59:22.767Z,75.81
2023-03-11T04:01:56.404Z,75.73
2023-03-11T04:04:27.069Z,76.07
2023-03-11T04:06:57.434Z,76.58
2023-03-11T04:09:27.053Z,76.35
2023-03-11T04:11:57.656Z,76.44
2023-03-11T04:14:27.761Z,76.49
2023-03-11T04:17:00.692Z,76.52
2023-03-11T04:19:30.538Z,76.35
2023-03-11T04:22:00.519Z,76.73
2023-03-11T04:24:32.100Z,76.89
2023-03-11T04:27:02.517Z,77.10
2023-03-11T04:29:33.767Z,77.08
2023-03-11T04:32:03.975Z,77.26
2023-03-11T04:34:34.579Z,77.72
2023-03-11T04:37:04.843Z,78.12
2023-03-11T04:39:37.012Z,78.42
2023-03-11T04:42:07.298Z,78.68
2023-03-11T04:44:37.909Z,79.39
2023-03-11T04:47:08.440Z,79.76
2023-03-11T04:49:38.588Z,80.15
2023-03-11T04:52:08.878Z,81.61
2023-03-11T04:54:39.263Z,83.53
2023-03-11T04:57:09.664Z,85.93
2023-03-11T04:59:40.479Z,86.70
2023-03-11T05:02:12.860Z,86.81
2023-03-11T05:04:45.841Z,87.15
2023-03-11T05:07:17.099Z,87.36
2023-03-11T05:09:47.425Z,87.51
2023-03-11T05:12:17.417Z,87.24
2023-03-11T05:14:51.417Z,86.65
2023-03-11T05:17:21.903Z,86.05
2023-03-11T05:19:54.263Z,85.74
2023-03-11T05:22:31.526Z,85.70
2023-03-11T05:25:00.912Z,85.29
2023-03-11T05:27:31.549Z,84.91
2023-03-11T05:30:01.466Z,84.98
2023-03-11T05:32:32.948Z,84.31
2023-03-11T05:35:02.422Z,84.35
2023-03-11T05:37:32.888Z,83.47
2023-03-11T05:40:07.055Z,82.69
2023-03-11T05:42:37.666Z,82.38
2023-03-11T05:45:08.910Z,81.78
2023-03-11T05:47:40.107Z,81.04
2023-03-11T05:50:13.263Z,80.60
2023-03-11T05:52:43.724Z,80.13
2023-03-11T05:55:13.864Z,79.96
2023-03-11T05:57:44.526Z,79.57
2023-03-11T06:00:15.637Z,80.11
2023-03-11T06:02:48.159Z,80.43
2023-03-11T06:05:20.059Z,80.38
2023-03-11T06:07:51.603Z,80.33
2023-03-11T06:10:21.825Z,80.41
2023-03-11T06:12:52.155Z,80.46
2023-03-11T06:15:30.153Z,80.21
2023-03-11T06:18:00.332Z,80.14
2023-03-11T06:20:29.661Z,79.88
2023-03-11T06:22:59.199Z,79.47
2023-03-11T06:25:28.748Z,78.23
2023-03-11T06:27:58.909Z,77.76
2023-03-11T06:30:28.552Z,77.33
2023-03-11T06:33:10.996Z,76.77
2023-03-11T06:35:41.420Z,76.08
2023-03-11T06:38:11.074Z,75.35
2023-03-11T06:40:39.773Z,74.87
2023-03-11T06:43:09.257Z,74.10
2023-03-11T06:45:40.562Z,73.80
2023-03-11T06:48:11.311Z,73.20
2023-03-11T06:50:41.726Z,73.14
2023-03-11T06:53:11.508Z,73.12
2023-03-11T06:55:41.070Z,73.43
2023-03-11T06:58:11.193Z,73.19
2023-03-11T07:00:42.780Z,73.13
2023-03-11T07:03:13.119Z,72.50
2023-03-11T07:05:43.088Z,71.96
2023-03-11T07:08:13.732Z,71.63
2023-03-11T07:10:43.558Z,71.39
2023-03-11T07:13:14.034Z,71.83
2023-03-11T07:15:44.157Z,71.63
2023-03-11T07:18:14.319Z,71.22
2023-03-11T07:20:43.178Z,71.53
2023-03-11T07:23:12.533Z,71.20
2023-03-11T07:25:47.617Z,70.29
2023-03-11T07:28:17.639Z,69.05
2023-03-11T07:30:49.019Z,66.77
2023-03-11T07:33:19.742Z,67.02
2023-03-11T07:35:49.821Z,66.85
2023-03-11T07:38:20.175Z,65.92
2023-03-11T07:40:59.396Z,66.39
2023-03-11T07:43:31.504Z,65.76
2023-03-11T07:46:19.827Z,64.63
2023-03-11T07:48:51.243Z,61.04
2023-03-11T07:51:27.430Z,60.21
2023-03-11T07:53:58.031Z,58.27
2023-03-11T07:56:30.291Z,56.59
2023-03-11T07:59:01.568Z,52.26
2023-03-11T08:01:41.823Z,52.67
2023-03-11T08:04:14.488Z,51.19
2023-03-11T08:06:47.357Z,48.91
2023-03-11T08:09:17.917Z,49.40
2023-03-11T08:11:49.680Z,47.76
2023-03-11T08:14:19.642Z,48.35
2023-03-11T08:16:49.478Z,46.27
2023-03-11T08:19:19.581Z,46.40
2023-03-11T08:21:49.302Z,45.80
2023-03-11T08:24:19.173Z,44.25
2023-03-11T08:26:48.512Z,43.39
2023-03-11T08:29:18.228Z,43.12
2023-03-11T08:31:48.183Z,42.24
2023-03-11T08:34:18.578Z,42.74
2023-03-11T08:36:49.980Z,43.97
2023-03-11T08:39:19.148Z,43.34
2023-03-11T08:41:49.149Z,42.60
2023-03-11T08:44:19.245Z,42.70
2023-03-11T08:46:49.520Z,41.45
2023-03-11T08:49:19.658Z,41.13
2023-03-11T08:51:49.789Z,42.37
2023-03-11T08:54:19.502Z,41.65
2023-03-11T08:56:48.793Z,40.90
2023-03-11T08:59:18.753Z,41.45
2023-03-11T09:01:48.144Z,40.18
2023-03-11T09:04:17.891Z,39.67
2023-03-11T09:06:49.451Z,38.95
2023-03-11T09:09:21.737Z,39.46
2023-03-11T09:11:53.117Z,39.90
2023-03-11T09:14:22.902Z,40.11
2023-03-11T09:16:52.794Z,39.65
2023-03-11T09:19:22.679Z,39.09
2023-03-11T09:21:52.485Z,38.53
2023-03-11T09:24:22.248Z,39.29
2023-03-11T09:26:51.599Z,39.28
2023-03-11T09:29:20.440Z,37.81
2023-03-11T09:31:50.513Z,37.28
2023-03-11T09:34:20.553Z,38.19
2023-03-11T09:36:50.510Z,38.05
2023-03-11T09:39:20.486Z,37.56
2023-03-11T09:41:59.544Z,37.67
2023-03-11T09:44:46.506Z,38.99
2023-03-11T09:47:26.756Z,38.46
2023-03-11T09:50:13.438Z,39.19
2023-03-11T09:53:09.623Z,39.15
2023-03-11T09:55:46.769Z,39.24
2023-03-11T09:58:37.448Z,39.89
2023-03-11T10:01:20.394Z,40.51
2023-03-11T10:03:55.055Z,40.86
2023-03-11T10:06:29.090Z,41.38
2023-03-11T10:09:08.728Z,41.40
2023-03-11T10:11:53.418Z,41.62
2023-03-11T10:14:45.423Z,39.67
2023-03-11T10:17:42.960Z,39.59
2023-03-11T10:20:29.199Z,37.28
2023-03-11T10:23:12.566Z,36.91
2023-03-11T10:25:52.205Z,37.08
2023-03-11T10:28:44.425Z,36.46
2023-03-11T10:31:20.194Z,34.11
2023-03-11T10:34:22.314Z,34.07
2023-03-11T10:37:05.030Z,33.91
2023-03-11T10:39:35.409Z,33.38
2023-03-11T10:42:11.374Z,33.02
2023-03-11T10:44:43.315Z,33.36
2023-03-11T10:47:19.652Z,33.65
2023-03-11T10:49:49.580Z,33.03
2023-03-11T10:52:19.776Z,33.65
2023-03-11T10:55:04.066Z,34.56
2023-03-11T10:57:39.213Z,35.32
2023-03-11T11:00:12.952Z,34.86
2023-03-11T11:03:00.243Z,35.58
2023-03-11T11:05:35.778Z,35.43
2023-03-11T11:08:17.495Z,36.63
2023-03-11T11:10:51.736Z,36.77
2023-03-11T11:13:24.251Z,35.75
2023-03-11T11:16:02.692Z,35.89
2023-03-11T11:18:47.142Z,35.35
2023-03-11T11:21:38.222Z,36.02
2023-03-11T11:24:31.767Z,35.38
2023-03-11T11:27:30.161Z,34.72
2023-03-11T11:30:10.029Z,34.79
2023-03-11T11:32:40.267Z,34.37
2023-03-11T11:35:14.288Z,34.91
2023-03-11T11:37:56.293Z,35.27
2023-03-11T11:40:31.361Z,36.25
2023-03-11T11:43:38.915Z,35.95
2023-03-11T11:46:35.353Z,36.63
2023-03-11T11:49:22.409Z,36.76
2023-03-11T11:52:01.089Z,36.94
2023-03-11T11:54:39.179Z,37.91
2023-03-11T11:57:14.585Z,37.50
2023-03-11T11:59:46.158Z,37.70
2023-03-11T12:02:43.764Z,37.53
2023-03-11T12:05:34.225Z,37.29
2023-03-11T12:08:35.112Z,37.85
2023-03-11T12:11:08.269Z,37.92
2023-03-11T12:14:03.578Z,37.32
2023-03-11T12:16:51.595Z,37.46
2023-03-11T12:19:34.628Z,37.11
2023-03-11T12:22:23.065Z,36.82
2023-03-11T12:25:12.047Z,37.02
2023-03-11T12:27:55.115Z,36.87
2023-03-11T12:30:33.878Z,36.28
2023-03-11T12:33:09.757Z,36.12
2023-03-11T12:35:48.456Z,36.27
2023-03-11T12:38:33.260Z,35.49
2023-03-11T12:41:16.457Z,34.55
2023-03-11T12:43:46.787Z,35.34
2023-03-11T12:46:20.652Z,35.94
2023-03-11T12:49:27.109Z,36.10
2023-03-11T12:52:16.265Z,37.37
2023-03-11T12:55:11.121Z,38.37
2023-03-11T12:58:01.917Z,39.61
2023-03-11T13:00:49.715Z,40.22
2023-03-11T13:03:58.784Z,40.94
2023-03-11T13:06:35.092Z,41.90
2023-03-11T13:09:05.446Z,42.68
2023-03-11T13:11:34.018Z,43.22
2023-03-11T13:14:22.778Z,42.81
2023-03-11T13:16:52.600Z,42.66
2023-03-11T13:19:30.258Z,43.41
2023-03-11T13:22:02.330Z,44.92
2023-03-11T13:24:32.616Z,45.38
2023-03-11T13:27:05.923Z,46.10
2023-03-11T13:29:59.689Z,46.58
2023-03-11T13:32:34.505Z,47.23
2023-03-11T13:35:42.504Z,47.38
2023-03-11T13:38:25.885Z,47.34
2023-03-11T13:40:56.189Z,48.07
2023-03-11T13:43:26.946Z,49.35
2023-03-11T13:46:05.519Z,50.39
2023-03-11T13:48:47.179Z,50.91
2023-03-11T14:06:41.656Z,45.02
2023-03-11T14:10:34.208Z,41.66
2023-03-11T14:29:56.744Z,43.62
2023-03-11T14:33:48.900Z,43.66
2023-03-11T14:37:43.198Z,43.75
2023-03-11T15:23:25.561Z,47.23
2023-03-11T15:39:28.529Z,48.44
2023-03-11T15:43:22.614Z,48.76
2023-03-11T16:06:09.923Z,48.81
2023-03-11T16:09:54.294Z,48.70
2023-03-11T16:13:48.607Z,49.11
2023-03-11T16:17:24.777Z,49.32
2023-03-11T16:21:18.248Z,49.76
2023-03-11T16:37:00.662Z,50.23
2023-03-11T16:40:53.849Z,50.91
2023-03-11T16:44:46.726Z,51.02
2023-03-11T17:00:28.888Z,50.38
2023-03-11T17:04:19.548Z,48.98
2023-03-11T17:08:12.217Z,48.97
2023-03-11T17:12:05.298Z,49.03
2023-03-11T17:27:51.187Z,49.12
2023-03-11T17:31:45.924Z,49.13
2023-03-11T17:35:31.027Z,49.47
2023-03-11T17:39:23.252Z,49.00
2023-03-11T17:55:10.406Z,51.16
2023-03-11T17:59:03.733Z,51.15
2023-03-11T18:02:36.240Z,51.26
2023-03-11T18:06:27.383Z,51.22
2023-03-11T18:22:13.170Z,51.46
2023-03-11T18:26:06.161Z,51.91
2023-03-11T18:30:01.425Z,51.71
2023-03-11T18:41:53.733Z,52.43
2023-03-11T18:45:44.840Z,52.80
2023-03-11T18:49:39.497Z,53.54
2023-03-11T19:05:24.608Z,54.83
2023-03-11T19:09:11.132Z,55.18
2023-03-11T19:13:04.099Z,55.04
2023-03-11T19:20:51.641Z,55.29
2023-03-11T19:24:36.323Z,55.76
2023-03-11T19:44:06.600Z,56.96
2023-03-11T19:47:57.429Z,57.18
2023-03-11T19:51:50.809Z,58.26
2023-03-11T19:55:46.107Z,58.86
2023-03-11T20:15:18.942Z,67.72
2023-03-11T20:19:11.371Z,68.41
2023-03-11T20:23:03.571Z,67.88
2023-03-11T20:42:30.456Z,70.06
2023-03-11T20:46:24.093Z,71.17
2023-03-11T21:01:54.909Z,72.20
2023-03-11T21:05:47.411Z,72.82
2023-03-11T21:09:40.348Z,73.07
2023-03-11T21:25:47.539Z,70.91
2023-03-11T21:29:38.091Z,70.91
2023-03-11T21:32:51.099Z,69.44
2023-03-11T21:36:41.940Z,68.05
2023-03-11T21:44:31.253Z,66.11
2023-03-11T21:48:23.360Z,64.59
2023-03-11T21:52:15.782Z,63.57
2023-03-11T22:11:32.517Z,61.26
2023-03-11T22:15:23.193Z,60.71
2023-03-11T22:19:17.333Z,60.61
2023-03-11T22:23:09.641Z,60.78
2023-03-11T22:42:48.126Z,58.39
2023-03-11T22:46:43.123Z,58.06
2023-03-11T22:50:35.838Z,58.20
2023-03-11T23:02:28.120Z,57.34
2023-03-11T23:06:19.356Z,57.72
2023-03-11T23:10:13.752Z,58.35
2023-03-11T23:25:54.924Z,58.30
2023-03-11T23:29:47.029Z,58.30
2023-03-11T23:33:40.050Z,58.26
2023-03-11T23:56:51.200Z,59.13
